Rechercher aéroport 
image banner adimage banner adimage banner ad
image banner ad

5PS3 - St Francis Medical Center

Situé à Pittsburgh, United States

ICAO - 5PS3, IATA -

Données fournies par Airmate  

Information générale

Coordonnées: N40°27'60" W79°57'10"
Élévation : 947 feet MSL.
Variation magnétique : -08° East
Voir autres Aéroports à Pennsylvania

Données opérationnelles

Special qualification required
Heure actuelle UTC:
Heure actuelle locale:
Météo à : KAGC - Allegheny County ( 13 km )
METAR: KAGC 131853Z VRB03KT 9SM FEW043 SCT050 BKN060 28/19 A2985 RMK AO2 SLP104 T02780189
TAF: KAGC 131720Z 1318/1418 26005KT P6SM VCTS BKN050CB TEMPO 1319/1322 4SM -TSRA OVC040CB FM140000 24004KT P6SM SCT060 FM140800 00000KT 3SM BR SCT250 FM141400 25005KT P6SM SCT040
Voir NOTAMs / SUP AIP / TFR affectant cet aéroport [VIEW]
Fréquences de communication: [VIEW]

Pistes:

Coordonnées de l'aéroport

Adresse: Pittsburgh United States

Vue satellite de 5PS3